Time;durP1;ratioP1;P1;durP2;ratioP2;P2;SDS_P1;SDS_P2;PMS_P1;PMS_P2;Temp;Humidity;BMP_temperature;BMP_pressure;BME280_temperature;BME280_humidity;BME280_pressure;Samples;Min_cycle;Max_cycle;Signal;HPM_P1;HPM_P2
2021/11/12 00:13:35;;;;;;;25.23;18.55;;;23.10;99.10;;;;;;4194184;28;20040;-66
2021/11/12 00:15:48;;;;;;;29.23;18.00;;;23.10;98.50;;;;;;4176802;28;20522;-68
2021/11/12 00:17:52;;;;;;;28.00;20.67;;;23.10;98.50;;;;;;4196818;28;20045;-67
2021/11/12 00:19:57;;;;;;;29.88;18.58;;;23.00;98.80;;;;;;4201651;28;20032;-66
2021/11/12 00:22:02;;;;;;;31.05;20.20;;;23.00;99.00;;;;;;4196477;28;20045;-66
2021/11/12 00:24:06;;;;;;;29.20;19.67;;;23.00;99.20;;;;;;4197007;28;20467;-67
2021/11/12 00:26:11;;;;;;;25.65;19.50;;;23.10;99.10;;;;;;4199775;28;20052;-70
2021/11/12 00:28:17;;;;;;;31.48;20.90;;;23.10;99.10;;;;;;4200829;28;20070;-69
2021/11/12 00:35:11;;;;;;;28.77;20.30;;;23.00;99.10;;;;;;4206142;28;20448;-68
2021/11/12 00:42:03;;;;;;;27.13;18.33;;;23.10;98.40;;;;;;4202764;28;20055;-67
2021/11/12 00:46:24;;;;;;;23.20;16.23;;;23.00;97.50;;;;;;4208134;28;19923;-68
2021/11/12 00:48:32;;;;;;;26.08;15.57;;;23.00;98.00;;;;;;4208687;28;20044;-67
2021/11/12 00:54:59;;;;;;;19.98;14.63;;;23.30;97.30;;;;;;4209103;28;20131;-67
2021/11/12 00:57:05;;;;;;;18.83;14.65;;;23.10;97.70;;;;;;4205449;28;20050;-69
2021/11/12 00:59:09;;;;;;;20.65;15.13;;;23.00;97.70;;;;;;4203769;28;20060;-69
2021/11/12 01:01:14;;;;;;;21.63;13.98;;;23.10;98.10;;;;;;4189370;28;20522;-69
2021/11/12 01:03:19;;;;;;;20.95;14.75;;;23.30;98.10;;;;;;4208813;28;20494;-69
2021/11/12 01:05:24;;;;;;;19.45;14.15;;;23.50;97.90;;;;;;4207556;28;20074;-68
2021/11/12 01:07:29;;;;;;;23.05;14.13;;;23.70;97.50;;;;;;4190243;28;20049;-70
2021/11/12 01:09:35;;;;;;;19.67;13.85;;;23.60;97.50;;;;;;4188384;28;20041;-68
2021/11/12 01:11:40;;;;;;;19.60;13.73;;;23.70;97.60;;;;;;4205940;28;20048;-69
2021/11/12 01:13:45;;;;;;;19.88;13.05;;;23.80;96.90;;;;;;4191449;28;20058;-68
2021/11/12 01:15:50;;;;;;;20.77;12.88;;;23.60;97.20;;;;;;4206808;28;20040;-70
2021/11/12 01:17:55;;;;;;;17.88;12.05;;;23.70;96.50;;;;;;4202666;28;20055;-73
2021/11/12 01:20:00;;;;;;;19.50;12.82;;;23.80;96.40;;;;;;4205469;28;20094;-71
2021/11/12 01:22:05;;;;;;;18.95;12.07;;;23.80;96.20;;;;;;4206900;28;20047;-71
2021/11/12 01:24:10;;;;;;;19.00;11.65;;;23.80;96.20;;;;;;4203139;28;20036;-69
2021/11/12 01:26:17;;;;;;;19.98;12.35;;;23.80;96.70;;;;;;4207086;28;20406;-69
2021/11/12 01:28:23;;;;;;;14.57;12.23;;;24.00;96.20;;;;;;4204167;28;20052;-69
2021/11/12 01:30:28;;;;;;;20.23;12.30;;;24.00;96.20;;;;;;4205038;28;20043;-69
2021/11/12 01:32:33;;;;;;;19.23;11.13;;;24.10;95.90;;;;;;4205904;28;20495;-69
2021/11/12 01:34:37;;;;;;;16.70;10.88;;;24.20;95.60;;;;;;4204135;28;20048;-68
2021/11/12 01:36:44;;;;;;;18.00;10.98;;;24.30;95.40;;;;;;4207404;28;20049;-69
2021/11/12 01:38:50;;;;;;;21.55;11.55;;;24.30;95.20;;;;;;4189665;28;20558;-69
2021/11/12 01:40:55;;;;;;;17.05;10.75;;;24.30;95.00;;;;;;4205681;28;20044;-71
2021/11/12 01:43:18;;;;;;;15.68;10.73;;;24.40;95.00;;;;;;4201558;28;20048;-67
2021/11/12 01:45:32;;;;;;;16.23;10.50;;;24.40;95.40;;;;;;4187625;28;20033;-68
2021/11/12 01:50:10;;;;;;;15.55;11.15;;;24.30;95.20;;;;;;4203632;28;20406;-68
2021/11/12 01:52:37;;;;;;;15.45;11.73;;;24.40;95.40;;;;;;4203195;28;20251;-67
2021/11/12 01:54:47;;;;;;;27.25;11.52;;;24.40;95.50;;;;;;4201492;28;20075;-67
2021/11/12 02:01:11;;;;;;;17.98;10.95;;;24.40;95.40;;;;;;4204074;28;20048;-67
2021/11/12 02:03:16;;;;;;;14.38;10.55;;;24.50;95.60;;;;;;4203721;28;20102;-66
2021/11/12 02:05:20;;;;;;;16.15;10.38;;;24.60;95.30;;;;;;4205776;28;20385;-66
2021/11/12 02:07:25;;;;;;;16.65;9.02;;;24.70;95.30;;;;;;4202384;28;20048;-66
2021/11/12 02:09:30;;;;;;;16.73;9.50;;;24.90;95.00;;;;;;4201618;28;20124;-67
2021/11/12 02:11:34;;;;;;;14.38;9.15;;;25.00;94.40;;;;;;4207271;28;20055;-66
2021/11/12 02:13:41;;;;;;;15.10;9.68;;;25.00;94.20;;;;;;4201603;28;20135;-67
2021/11/12 02:15:46;;;;;;;12.73;8.98;;;25.10;94.00;;;;;;4199867;28;20041;-67
2021/11/12 02:18:02;;;;;;;13.43;9.27;;;25.20;93.80;;;;;;4198607;28;20072;-65
2021/11/12 02:20:19;;;;;;;14.02;9.00;;;25.20;93.30;;;;;;4203210;28;20101;-66
2021/11/12 02:22:29;;;;;;;12.50;9.05;;;25.20;93.30;;;;;;4205672;28;20042;-66
2021/11/12 02:24:36;;;;;;;11.98;8.57;;;25.30;93.40;;;;;;4202990;28;20068;-66
2021/11/12 02:26:53;;;;;;;12.38;8.52;;;25.30;93.20;;;;;;4203315;28;20502;-65
2021/11/12 02:28:58;;;;;;;15.60;8.32;;;25.40;93.30;;;;;;4202320;28;20052;-66
2021/11/12 02:31:03;;;;;;;14.40;8.18;;;25.50;93.20;;;;;;4187149;28;20091;-66
2021/11/12 02:33:11;;;;;;;14.38;7.82;;;25.50;92.50;;;;;;4186191;28;20383;-67
2021/11/12 02:35:16;;;;;;;13.30;8.30;;;25.50;92.50;;;;;;4202226;28;20032;-67
2021/11/12 02:37:21;;;;;;;11.55;8.10;;;25.60;92.30;;;;;;4170713;28;20425;-67
2021/11/12 02:39:25;;;;;;;13.77;7.70;;;25.60;92.10;;;;;;4198437;28;20483;-69
2021/11/12 02:41:32;;;;;;;13.93;7.50;;;25.70;92.20;;;;;;4205381;28;20042;-68
2021/11/12 02:43:38;;;;;;;11.80;7.35;;;25.80;92.20;;;;;;4202743;28;20033;-67
2021/11/12 02:45:43;;;;;;;11.98;8.10;;;25.80;92.10;;;;;;4187881;28;20052;-68
2021/11/12 02:47:47;;;;;;;10.80;7.85;;;25.80;92.10;;;;;;4201416;28;20134;-68
2021/11/12 02:49:55;;;;;;;13.52;8.10;;;25.80;92.60;;;;;;4188123;28;20357;-68
2021/11/12 02:52:00;;;;;;;15.13;8.05;;;26.00;92.60;;;;;;4182898;28;20045;-68
2021/11/12 02:54:06;;;;;;;12.57;8.15;;;26.10;92.50;;;;;;4185165;28;20053;-69
2021/11/12 02:56:15;;;;;;;10.45;7.60;;;26.10;92.10;;;;;;4204984;28;20032;-68
2021/11/12 02:58:20;;;;;;;69.80;11.57;;;26.20;92.20;;;;;;4203508;28;20047;-69
2021/11/12 03:00:25;;;;;;;10.25;7.40;;;26.10;92.20;;;;;;4201631;28;20036;-68
2021/11/12 03:02:31;;;;;;;31.10;8.63;;;26.20;92.10;;;;;;4197966;28;20060;-67
2021/11/12 03:04:36;;;;;;;13.80;7.03;;;26.20;91.80;;;;;;4205250;28;20162;-67
2021/11/12 03:06:44;;;;;;;12.82;7.15;;;26.30;91.80;;;;;;4185710;28;20051;-68
2021/11/12 03:08:49;;;;;;;11.68;7.18;;;26.30;91.70;;;;;;4197878;28;20045;-68
2021/11/12 03:10:55;;;;;;;14.48;7.95;;;26.40;91.50;;;;;;4199837;28;20040;-68
2021/11/12 03:13:00;;;;;;;9.25;7.53;;;26.50;91.80;;;;;;4206468;28;20574;-69
2021/11/12 03:15:05;;;;;;;11.35;7.70;;;26.50;91.30;;;;;;4201502;28;20091;-68
2021/11/12 03:17:10;;;;;;;10.88;6.72;;;26.50;91.50;;;;;;4200075;28;20055;-68
2021/11/12 03:19:14;;;;;;;16.08;7.70;;;26.60;91.70;;;;;;4199706;28;20453;-67
2021/11/12 03:21:21;;;;;;;11.35;6.45;;;26.70;91.30;;;;;;4204756;28;20050;-69
2021/11/12 03:23:33;;;;;;;9.50;6.75;;;26.70;91.10;;;;;;4186944;28;20079;-68
2021/11/12 03:25:45;;;;;;;12.00;5.47;;;26.70;91.30;;;;;;4202896;28;20135;-68
2021/11/12 04:04:17;;;;;;;17.67;5.38;;;27.30;88.10;;;;;;4204226;28;20440;-67
2021/11/12 04:17:58;;;;;;;9.38;4.85;;;27.50;87.50;;;;;;4191403;28;20037;-67
2021/11/12 05:10:04;;;;;;;7.45;5.50;;;28.30;85.30;;;;;;4203022;28;20048;-67
2021/11/12 05:26:19;;;;;;;8.13;5.18;;;28.60;84.30;;;;;;4206291;28;20098;-69
2021/11/12 05:55:08;;;;;;;9.35;5.15;;;28.90;82.10;;;;;;4201079;28;20140;-68
2021/11/12 05:57:13;;;;;;;6.90;4.90;;;28.90;82.30;;;;;;4200835;28;20593;-67
2021/11/12 05:59:17;;;;;;;9.95;4.28;;;29.00;82.50;;;;;;4204434;28;20093;-67
2021/11/12 06:01:22;;;;;;;5.03;4.20;;;29.00;82.20;;;;;;4201972;28;20393;-67
2021/11/12 06:03:27;;;;;;;6.20;4.32;;;28.90;81.50;;;;;;4203761;28;20391;-66
2021/11/12 06:05:31;;;;;;;5.85;4.53;;;28.90;82.50;;;;;;4203193;28;20074;-67
2021/11/12 06:07:36;;;;;;;6.47;4.10;;;28.90;81.20;;;;;;4199846;28;20083;-68
2021/11/12 06:09:40;;;;;;;9.45;4.43;;;28.90;81.30;;;;;;4199901;28;20377;-69
2021/11/12 06:11:46;;;;;;;6.30;4.47;;;28.90;81.60;;;;;;4206483;28;20043;-68
2021/11/12 06:13:52;;;;;;;6.28;4.28;;;29.00;81.60;;;;;;4187784;28;20051;-68
2021/11/12 06:15:56;;;;;;;15.80;5.07;;;29.10;81.50;;;;;;4204132;28;20105;-69
2021/11/12 06:18:01;;;;;;;5.82;4.00;;;29.10;81.80;;;;;;4204558;28;20036;-69
2021/11/12 06:20:11;;;;;;;12.77;4.93;;;29.20;81.30;;;;;;4206392;28;20071;-69
2021/11/12 06:22:15;;;;;;;7.22;4.35;;;29.20;82.00;;;;;;4200715;28;20059;-69
2021/11/12 06:24:19;;;;;;;7.35;4.07;;;29.30;80.30;;;;;;4194269;28;20049;-68
2021/11/12 06:26:28;;;;;;;6.60;4.10;;;29.40;80.30;;;;;;4209399;28;20047;-69
2021/11/12 06:28:32;;;;;;;10.32;4.22;;;29.30;80.50;;;;;;4186938;28;20359;-68
2021/11/12 06:30:37;;;;;;;8.13;4.10;;;29.30;81.20;;;;;;4193535;28;20534;-70
2021/11/12 06:32:42;;;;;;;5.40;4.30;;;29.30;80.40;;;;;;4201160;28;20391;-68
2021/11/12 06:34:48;;;;;;;7.60;4.30;;;29.40;80.30;;;;;;4183019;28;20330;-70
2021/11/12 06:36:53;;;;;;;7.35;4.32;;;29.40;80.00;;;;;;4206787;28;20064;-69
2021/11/12 06:38:59;;;;;;;6.15;4.22;;;29.50;80.30;;;;;;4196131;28;20037;-71
2021/11/12 06:41:09;;;;;;;6.57;4.00;;;29.40;80.30;;;;;;4201158;28;20036;-68
2021/11/12 06:50:16;;;;;;;8.43;4.07;;;29.20;80.60;;;;;;4205091;28;20052;-69
2021/11/12 06:52:21;;;;;;;6.45;4.07;;;29.20;81.00;;;;;;4206109;28;20072;-69
2021/11/12 06:54:27;;;;;;;8.93;4.07;;;29.30;81.80;;;;;;4206423;28;20048;-69
2021/11/12 06:56:31;;;;;;;12.10;4.05;;;29.30;81.90;;;;;;4202722;28;20127;-69
2021/11/12 06:58:40;;;;;;;5.72;4.15;;;29.40;81.50;;;;;;4201923;28;20040;-68
2021/11/12 07:00:46;;;;;;;10.77;4.43;;;29.60;81.40;;;;;;4202235;28;20458;-68
2021/11/12 07:02:51;;;;;;;13.68;4.47;;;29.60;81.40;;;;;;4204890;28;20048;-70
2021/11/12 07:04:58;;;;;;;24.55;5.85;;;29.60;81.30;;;;;;4205623;28;20052;-68
2021/11/12 07:07:03;;;;;;;37.75;5.82;;;29.60;81.40;;;;;;4201750;28;20053;-68
2021/11/12 07:09:07;;;;;;;15.27;4.55;;;29.70;81.60;;;;;;4204336;28;20067;-68
2021/11/12 07:11:12;;;;;;;7.85;4.43;;;29.60;81.60;;;;;;4203630;28;20036;-68
2021/11/12 07:13:17;;;;;;;7.32;4.13;;;29.50;81.80;;;;;;4187432;28;20040;-68
2021/11/12 07:15:21;;;;;;;8.13;4.80;;;29.40;82.00;;;;;;4203793;28;20462;-69
2021/11/12 07:17:26;;;;;;;6.93;5.47;;;29.40;82.00;;;;;;4200316;28;20048;-68
2021/11/12 07:19:30;;;;;;;10.02;5.85;;;29.40;81.90;;;;;;4182992;28;20536;-68
2021/11/12 07:21:39;;;;;;;7.03;5.63;;;29.50;82.00;;;;;;4199113;28;20426;-67
2021/11/12 07:23:43;;;;;;;6.40;4.47;;;29.60;82.60;;;;;;4199526;28;20136;-68
2021/11/12 07:25:48;;;;;;;6.65;4.40;;;29.70;82.10;;;;;;4199910;28;20075;-68
2021/11/12 07:27:52;;;;;;;8.52;4.28;;;29.60;81.70;;;;;;4185941;28;20040;-67
2021/11/12 07:29:57;;;;;;;6.53;4.57;;;29.60;82.00;;;;;;4184874;28;20082;-68
2021/11/12 07:32:03;;;;;;;5.68;4.22;;;29.60;81.80;;;;;;4201742;28;20155;-68
2021/11/12 07:34:08;;;;;;;9.40;4.40;;;29.50;81.60;;;;;;4196368;28;20032;-68
2021/11/12 07:36:19;;;;;;;6.72;3.97;;;29.30;81.50;;;;;;4198058;28;20135;-68
2021/11/12 07:38:28;;;;;;;12.10;4.65;;;29.30;81.80;;;;;;4197568;28;20049;-68
2021/11/12 07:43:18;;;;;;;5.05;3.53;;;29.50;81.30;;;;;;4205988;28;20435;-68
2021/11/12 07:45:36;;;;;;;7.55;4.18;;;29.60;81.10;;;;;;4192136;28;20127;-67
2021/11/12 07:47:40;;;;;;;6.68;3.83;;;29.60;81.80;;;;;;4205887;28;20052;-68
2021/11/12 07:49:48;;;;;;;4.32;3.17;;;29.60;81.00;;;;;;4191002;28;20060;-68
2021/11/12 07:51:52;;;;;;;7.18;3.60;;;29.50;81.00;;;;;;4202974;28;20044;-67
2021/11/12 07:53:57;;;;;;;4.60;3.45;;;29.60;81.20;;;;;;4201108;28;20127;-68
2021/11/12 07:56:02;;;;;;;4.25;3.60;;;29.60;81.50;;;;;;4200488;28;20058;-67
2021/11/12 07:58:06;;;;;;;6.20;3.85;;;29.60;80.50;;;;;;4204130;28;20284;-68
2021/11/12 08:00:11;;;;;;;7.25;3.40;;;29.60;80.80;;;;;;4207616;28;20056;-69
2021/11/12 08:02:17;;;;;;;4.97;3.25;;;29.60;81.10;;;;;;4203030;28;20056;-68
2021/11/12 08:04:22;;;;;;;8.65;3.47;;;29.50;81.40;;;;;;4200829;28;20450;-69
2021/11/12 08:06:28;;;;;;;8.95;3.95;;;29.50;81.50;;;;;;4201372;28;20093;-69
2021/11/12 08:08:36;;;;;;;10.48;5.30;;;29.50;82.10;;;;;;4204527;28;20520;-68
2021/11/12 08:10:54;;;;;;;8.77;5.70;;;29.40;81.80;;;;;;4187289;28;20045;-67
2021/11/12 08:13:07;;;;;;;8.88;4.90;;;29.40;82.60;;;;;;4202905;28;20158;-68
2021/11/12 08:15:28;;;;;;;7.97;4.30;;;29.40;82.10;;;;;;4182633;28;20053;-68
2021/11/12 08:19:57;;;;;;;6.85;3.60;;;29.50;81.80;;;;;;4196933;28;20513;-69
2021/11/12 08:22:09;;;;;;;4.90;3.08;;;29.50;81.50;;;;;;4185940;28;20686;-68
2021/11/12 08:29:21;;;;;;;6.93;4.97;;;29.30;82.00;;;;;;4199057;28;20049;-68
2021/11/12 08:42:41;;;;;;;5.68;3.65;;;29.40;82.30;;;;;;4200602;28;20086;-67
2021/11/12 08:44:55;;;;;;;6.28;3.97;;;29.30;82.60;;;;;;4182785;28;20044;-69
2021/11/12 08:49:11;;;;;;;5.75;3.90;;;29.20;83.40;;;;;;4202561;28;20101;-71
2021/11/12 08:51:18;;;;;;;6.78;5.35;;;29.20;83.20;;;;;;4201078;28;20129;-70
2021/11/12 08:53:23;;;;;;;8.88;5.45;;;29.20;83.30;;;;;;4206079;28;20067;-70
2021/11/12 08:55:30;;;;;;;7.20;4.30;;;29.10;83.10;;;;;;4202670;28;20134;-68
2021/11/12 08:57:35;;;;;;;6.13;3.83;;;29.10;83.10;;;;;;4201306;28;20769;-68
2021/11/12 08:59:40;;;;;;;6.63;3.97;;;29.10;83.20;;;;;;4198222;28;20041;-69
2021/11/12 09:01:46;;;;;;;10.38;4.18;;;29.10;83.50;;;;;;4200174;28;20052;-69
2021/11/12 09:03:51;;;;;;;7.78;3.95;;;29.10;83.50;;;;;;4183398;28;20053;-67
2021/11/12 09:05:55;;;;;;;7.07;4.50;;;29.10;83.80;;;;;;4202286;28;20483;-67
2021/11/12 09:08:01;;;;;;;7.88;4.38;;;29.10;83.90;;;;;;4178813;28;20053;-69
2021/11/12 09:10:06;;;;;;;8.32;5.40;;;29.10;84.10;;;;;;4207378;28;20101;-69
2021/11/12 09:12:12;;;;;;;10.88;6.00;;;29.10;84.00;;;;;;4207073;28;20126;-69
2021/11/12 09:14:20;;;;;;;10.63;7.75;;;29.00;84.20;;;;;;4180154;28;20163;-67
2021/11/12 09:16:36;;;;;;;11.90;7.47;;;29.00;84.30;;;;;;4200569;28;20565;-68
2021/11/12 09:18:47;;;;;;;9.75;7.55;;;29.00;84.60;;;;;;4196166;28;20350;-67
2021/11/12 09:20:53;;;;;;;9.00;6.50;;;29.00;84.80;;;;;;4197476;28;20067;-67
2021/11/12 09:22:58;;;;;;;9.15;5.38;;;29.00;85.10;;;;;;4198852;28;20044;-67
2021/11/12 09:25:03;;;;;;;7.97;5.30;;;28.90;85.00;;;;;;4200712;28;20092;-67
2021/11/12 09:27:08;;;;;;;5.80;4.78;;;28.90;84.80;;;;;;4203483;28;20151;-67
2021/11/12 09:29:13;;;;;;;11.18;5.05;;;28.90;84.90;;;;;;4201316;28;20040;-68
2021/11/12 09:31:17;;;;;;;8.55;5.13;;;28.90;85.00;;;;;;4198707;28;20822;-66
2021/11/12 09:33:21;;;;;;;8.48;5.20;;;28.90;85.00;;;;;;4198752;28;20484;-67
2021/11/12 09:35:25;;;;;;;12.68;5.32;;;28.90;84.90;;;;;;4201571;28;20072;-67
2021/11/12 09:37:30;;;;;;;9.40;6.28;;;28.90;84.90;;;;;;4199864;28;20090;-67
2021/11/12 09:39:35;;;;;;;8.93;5.93;;;28.90;85.20;;;;;;4182783;28;20439;-67
2021/11/12 09:41:40;;;;;;;8.23;5.50;;;28.90;85.50;;;;;;4181889;28;20060;-68
2021/11/12 09:43:46;;;;;;;11.43;5.55;;;28.90;85.60;;;;;;4204400;28;20490;-67
2021/11/12 09:45:51;;;;;;;11.50;6.55;;;28.90;85.90;;;;;;4187039;28;20044;-67
2021/11/12 09:47:57;;;;;;;9.93;6.10;;;28.90;86.10;;;;;;4198105;28;20076;-67
2021/11/12 09:50:06;;;;;;;9.05;5.68;;;28.90;86.90;;;;;;4195556;28;20047;-67
2021/11/12 09:52:11;;;;;;;9.40;5.63;;;28.90;86.70;;;;;;4196819;28;20566;-68
2021/11/12 09:54:15;;;;;;;11.50;6.03;;;28.80;86.70;;;;;;4202223;28;20052;-68
2021/11/12 09:56:19;;;;;;;8.80;5.80;;;28.80;86.80;;;;;;4193802;28;20074;-68
2021/11/12 09:58:24;;;;;;;13.93;6.25;;;28.80;86.90;;;;;;4205078;28;20097;-68
2021/11/12 10:00:29;;;;;;;11.38;5.95;;;28.80;87.20;;;;;;4197964;28;20560;-67
2021/11/12 10:02:40;;;;;;;11.98;6.38;;;28.80;87.10;;;;;;4180569;28;20048;-67
2021/11/12 10:04:46;;;;;;;16.52;6.85;;;28.80;87.20;;;;;;4196758;28;20044;-69
2021/11/12 10:06:56;;;;;;;8.73;6.25;;;28.80;87.20;;;;;;4197162;28;20618;-69
2021/11/12 10:09:01;;;;;;;11.23;6.53;;;28.70;87.40;;;;;;4181275;28;20048;-67
2021/11/12 10:11:09;;;;;;;14.30;7.38;;;28.70;87.50;;;;;;4200205;28;20063;-68
2021/11/12 10:13:24;;;;;;;13.57;6.95;;;28.70;87.70;;;;;;4198412;28;20074;-68
2021/11/12 10:15:33;;;;;;;13.43;7.50;;;28.70;87.80;;;;;;4200815;28;20052;-67
2021/11/12 10:17:38;;;;;;;16.38;7.35;;;28.60;88.10;;;;;;4199515;28;20510;-68
2021/11/12 10:19:45;;;;;;;16.20;7.63;;;28.60;88.30;;;;;;4197676;28;20613;-67
2021/11/12 10:21:52;;;;;;;13.15;7.93;;;28.60;88.50;;;;;;4197597;28;20123;-66
2021/11/12 10:24:08;;;;;;;14.18;7.65;;;28.60;88.50;;;;;;4199880;28;20044;-66
2021/11/12 10:26:12;;;;;;;12.93;7.90;;;28.60;88.70;;;;;;4202607;28;20048;-67
2021/11/12 10:28:33;;;;;;;15.73;8.77;;;28.60;89.50;;;;;;4201957;28;20068;-67
2021/11/12 10:30:40;;;;;;;21.08;13.10;;;28.60;89.90;;;;;;4203090;28;20496;-68
2021/11/12 10:32:45;;;;;;;16.70;9.68;;;28.50;90.10;;;;;;4207265;28;20056;-66
2021/11/12 10:34:51;;;;;;;22.33;14.23;;;28.50;90.10;;;;;;4203760;28;20583;-68
2021/11/12 10:37:04;;;;;;;23.48;13.10;;;28.60;90.40;;;;;;4203895;28;20495;-66
2021/11/12 10:39:11;;;;;;;17.50;12.07;;;28.50;90.40;;;;;;4185706;28;20045;-67
2021/11/12 10:41:18;;;;;;;20.30;12.00;;;28.50;90.30;;;;;;4200823;28;20086;-68
2021/11/12 10:43:23;;;;;;;20.45;11.50;;;28.50;90.30;;;;;;4187330;28;20045;-68
2021/11/12 10:45:32;;;;;;;18.65;10.30;;;28.50;90.20;;;;;;4206381;28;20047;-68
2021/11/12 10:47:46;;;;;;;21.73;10.60;;;28.50;90.20;;;;;;4201955;28;20044;-67
2021/11/12 10:49:52;;;;;;;19.23;9.63;;;28.50;90.30;;;;;;4198505;28;20045;-67
2021/11/12 10:52:00;;;;;;;23.98;10.50;;;28.50;90.30;;;;;;4182295;28;20110;-68
2021/11/12 10:54:04;;;;;;;16.75;8.63;;;28.40;90.30;;;;;;4200842;28;20040;-68
2021/11/12 10:56:09;;;;;;;20.02;8.55;;;28.50;90.30;;;;;;4200381;28;20115;-67
2021/11/12 10:58:15;;;;;;;16.67;9.05;;;28.40;90.30;;;;;;4199369;28;20044;-68
2021/11/12 11:00:44;;;;;;;17.38;8.35;;;28.40;90.30;;;;;;4202203;28;20044;-68
2021/11/12 11:02:55;;;;;;;22.77;7.93;;;28.30;90.30;;;;;;4183822;28;20048;-67
2021/11/12 11:05:26;;;;;;;23.02;9.10;;;28.30;90.30;;;;;;4192019;28;20064;-68
2021/11/12 11:07:31;;;;;;;14.75;8.43;;;28.30;90.60;;;;;;4179460;28;20352;-67
2021/11/12 11:09:39;;;;;;;16.13;8.70;;;28.20;90.40;;;;;;4198072;28;20428;-68
2021/11/12 11:11:45;;;;;;;14.60;8.27;;;28.20;90.20;;;;;;4174399;28;20058;-68
2021/11/12 11:13:50;;;;;;;14.73;8.63;;;28.20;90.30;;;;;;4189082;28;20410;-67
2021/11/12 11:16:05;;;;;;;13.48;8.02;;;28.10;90.30;;;;;;4195998;28;20058;-68
2021/11/12 11:18:31;;;;;;;19.15;8.32;;;28.10;90.30;;;;;;4181751;28;20044;-68
2021/11/12 11:20:35;;;;;;;15.52;8.35;;;28.10;90.30;;;;;;4195947;28;20118;-68
2021/11/12 11:22:48;;;;;;;13.88;8.10;;;28.10;90.30;;;;;;4192126;28;20040;-68
2021/11/12 11:24:52;;;;;;;13.30;7.75;;;28.10;90.30;;;;;;4187999;28;20059;-67
2021/11/12 11:26:57;;;;;;;13.70;7.72;;;28.00;90.30;;;;;;4196820;28;20702;-68
2021/11/12 11:29:02;;;;;;;14.90;8.00;;;28.00;90.30;;;;;;4197410;28;20143;-66
2021/11/12 11:31:12;;;;;;;13.40;7.75;;;28.00;90.30;;;;;;4191098;28;20346;-66
2021/11/12 11:33:17;;;;;;;15.45;8.05;;;28.00;90.50;;;;;;4188273;28;20098;-67
2021/11/12 11:35:22;;;;;;;16.08;7.43;;;27.90;90.60;;;;;;4192817;28;20048;-66
2021/11/12 11:37:26;;;;;;;17.40;7.50;;;28.00;90.80;;;;;;4194284;28;20048;-67
2021/11/12 11:39:30;;;;;;;15.30;7.97;;;27.90;90.90;;;;;;4194774;28;20482;-67
2021/11/12 11:41:35;;;;;;;12.93;7.93;;;27.90;91.00;;;;;;4187751;28;20078;-67
2021/11/12 11:43:40;;;;;;;19.63;8.90;;;27.90;90.90;;;;;;4182605;28;20040;-67
2021/11/12 11:45:48;;;;;;;13.68;7.70;;;27.80;90.90;;;;;;4199858;28;20041;-68
2021/11/12 11:47:52;;;;;;;17.98;8.02;;;27.80;90.80;;;;;;4199555;28;20130;-67
2021/11/12 11:49:57;;;;;;;14.70;8.10;;;27.90;91.20;;;;;;4175973;28;20449;-68
2021/11/12 11:52:04;;;;;;;11.52;8.00;;;27.80;90.80;;;;;;4194921;28;20040;-68
2021/11/12 11:54:12;;;;;;;14.30;8.05;;;27.80;90.80;;;;;;4196147;28;20135;-67
2021/11/12 11:56:28;;;;;;;18.65;8.75;;;27.80;90.70;;;;;;4199809;28;20244;-68
2021/11/12 11:58:34;;;;;;;11.80;8.05;;;27.80;90.70;;;;;;4194988;28;20041;-68
2021/11/12 12:00:39;;;;;;;13.65;9.13;;;27.80;90.70;;;;;;4178036;28;20550;-69
2021/11/12 12:02:44;;;;;;;16.15;8.35;;;27.70;90.60;;;;;;4184642;28;20600;-67
2021/11/12 12:04:59;;;;;;;13.75;7.95;;;27.70;90.70;;;;;;4178853;28;20046;-68
2021/11/12 12:07:24;;;;;;;13.88;7.75;;;27.70;90.60;;;;;;4197260;28;20048;-67
2021/11/12 12:09:52;;;;;;;24.50;15.95;;;27.70;90.60;;;;;;4196340;28;20046;-70
2021/11/12 12:11:57;;;;;;;42.90;28.70;;;27.70;90.70;;;;;;4177333;28;20044;-68
2021/11/12 12:14:20;;;;;;;39.00;22.58;;;27.70;90.80;;;;;;4197133;28;20049;-69
2021/11/12 12:16:25;;;;;;;20.70;13.88;;;27.60;91.00;;;;;;4191782;28;20059;-68
2021/11/12 12:18:30;;;;;;;26.63;14.95;;;27.60;91.00;;;;;;4203326;28;20415;-69
2021/11/12 12:35:35;;;;;;;13.85;9.48;;;27.50;91.10;;;;;;4203606;28;20537;-70
2021/11/12 13:21:05;;;;;;;18.33;12.68;;;27.20;91.90;;;;;;4203031;28;20103;-68
2021/11/12 13:25:34;;;;;;;16.55;12.75;;;27.10;92.00;;;;;;4204439;28;20106;-68
2021/11/12 13:27:39;;;;;;;24.13;13.65;;;27.10;92.00;;;;;;4204089;28;20440;-68
2021/11/12 13:29:43;;;;;;;18.80;12.60;;;27.10;92.00;;;;;;4188997;28;20501;-68
2021/11/12 13:32:01;;;;;;;18.05;12.65;;;27.10;92.10;;;;;;4198249;28;20052;-69
2021/11/12 13:34:07;;;;;;;18.92;12.57;;;27.10;92.20;;;;;;4199772;28;20110;-69
2021/11/12 13:36:35;;;;;;;22.25;13.00;;;27.10;92.20;;;;;;4206577;28;20423;-68
2021/11/12 13:38:42;;;;;;;18.27;11.95;;;27.00;92.30;;;;;;4187751;28;20067;-69
2021/11/12 13:40:47;;;;;;;24.23;13.13;;;27.00;92.30;;;;;;4185153;28;20047;-68
2021/11/12 13:42:52;;;;;;;20.30;12.98;;;27.00;92.40;;;;;;4202991;28;20055;-68
2021/11/12 13:44:57;;;;;;;20.70;12.60;;;27.00;92.40;;;;;;4210465;28;20074;-69
2021/11/12 13:47:08;;;;;;;24.40;13.48;;;27.00;92.40;;;;;;4203469;28;20048;-69
2021/11/12 13:49:34;;;;;;;25.23;13.10;;;26.90;92.60;;;;;;4206934;28;20089;-70
2021/11/12 13:51:39;;;;;;;26.42;13.30;;;27.00;92.70;;;;;;4199107;28;20219;-68
2021/11/12 13:53:44;;;;;;;22.02;13.07;;;26.90;92.70;;;;;;4206660;28;20765;-68
2021/11/12 13:55:48;;;;;;;23.55;12.80;;;26.90;92.70;;;;;;4184957;28;20044;-69
2021/11/12 13:57:57;;;;;;;23.33;13.18;;;26.90;92.80;;;;;;4205935;28;20471;-67
2021/11/12 14:00:07;;;;;;;23.25;14.32;;;26.90;92.80;;;;;;4205250;28;20060;-68
2021/11/12 14:02:14;;;;;;;25.75;13.65;;;26.90;92.80;;;;;;4196196;28;20109;-68
2021/11/12 14:04:27;;;;;;;27.17;13.50;;;26.80;92.70;;;;;;4208984;28;20040;-68
2021/11/12 14:06:36;;;;;;;21.00;13.70;;;26.80;92.80;;;;;;4207040;28;20082;-69
2021/11/12 14:08:52;;;;;;;22.83;13.75;;;26.80;93.00;;;;;;4201820;28;20126;-68
2021/11/12 14:10:56;;;;;;;24.20;14.75;;;26.80;93.10;;;;;;4185207;28;20044;-68
2021/11/12 14:13:03;;;;;;;22.42;15.18;;;26.70;93.20;;;;;;4199641;28;20044;-68
2021/11/12 14:15:15;;;;;;;28.30;15.45;;;26.70;93.20;;;;;;4204537;28;20388;-68
2021/11/12 14:17:23;;;;;;;24.27;15.75;;;26.60;93.20;;;;;;4212072;28;20040;-68
2021/11/12 14:19:42;;;;;;;23.70;16.40;;;26.70;93.20;;;;;;4204635;28;20127;-68
2021/11/12 14:21:59;;;;;;;20.08;15.85;;;26.60;93.20;;;;;;4196643;28;20530;-68
2021/11/12 14:26:30;;;;;;;29.05;16.95;;;26.60;93.20;;;;;;4187804;28;20045;-67
2021/11/12 14:28:51;;;;;;;27.05;17.75;;;26.60;93.30;;;;;;4204735;28;20123;-67
2021/11/12 14:31:12;;;;;;;29.50;16.73;;;26.60;93.30;;;;;;4193384;28;20040;-68
2021/11/12 14:33:23;;;;;;;34.28;18.08;;;26.60;93.40;;;;;;4198161;28;20402;-68
2021/11/12 14:38:15;;;;;;;27.08;17.15;;;26.50;93.40;;;;;;4211124;28;20682;-72
2021/11/12 14:40:33;;;;;;;28.45;17.08;;;26.50;93.40;;;;;;4209463;28;20044;-72
2021/11/12 14:45:21;;;;;;;23.45;16.42;;;26.50;93.40;;;;;;4183977;28;20507;-72
2021/11/12 14:47:37;;;;;;;22.15;15.57;;;26.50;93.40;;;;;;4195919;28;20514;-72
2021/11/12 14:50:00;;;;;;;25.52;16.25;;;26.50;93.30;;;;;;4196321;28;20052;-72
2021/11/12 14:54:12;;;;;;;27.08;14.80;;;26.50;93.30;;;;;;4185415;28;20052;-73
2021/11/12 14:56:25;;;;;;;23.77;13.85;;;26.50;93.40;;;;;;4197610;28;20056;-72
2021/11/12 14:58:30;;;;;;;26.40;15.00;;;26.50;93.40;;;;;;4208920;28;20771;-73
2021/11/12 15:00:38;;;;;;;23.60;14.50;;;26.40;93.40;;;;;;4208034;28;20428;-71
2021/11/12 15:02:43;;;;;;;25.55;15.25;;;26.40;93.60;;;;;;4189753;28;20051;-71
2021/11/12 15:04:48;;;;;;;24.95;14.38;;;26.40;93.90;;;;;;4203288;28;20056;-72
2021/11/12 15:06:54;;;;;;;23.00;14.52;;;26.40;93.60;;;;;;4197578;28;20457;-72
2021/11/12 15:09:07;;;;;;;22.90;14.30;;;26.40;93.70;;;;;;4203397;28;20357;-72
2021/11/12 15:11:12;;;;;;;22.33;14.20;;;26.40;93.70;;;;;;4175819;28;20048;-71
2021/11/12 15:13:17;;;;;;;24.10;15.00;;;26.30;93.90;;;;;;4192647;28;20039;-71
2021/11/12 15:15:22;;;;;;;24.23;14.52;;;26.30;93.90;;;;;;4201526;28;20052;-73
2021/11/12 15:17:29;;;;;;;24.45;14.57;;;26.30;93.80;;;;;;4205986;28;20056;-72
2021/11/12 15:19:36;;;;;;;21.08;15.25;;;26.40;93.90;;;;;;4204749;28;20081;-72
2021/11/12 15:21:49;;;;;;;21.70;14.40;;;26.30;94.00;;;;;;4175420;28;20581;-71
2021/11/12 15:30:30;;;;;;;21.67;15.45;;;26.30;94.50;;;;;;4203420;28;20078;-72
2021/11/12 15:32:38;;;;;;;25.02;16.30;;;26.20;94.50;;;;;;4191107;28;20797;-72
2021/11/12 15:34:55;;;;;;;25.42;16.50;;;26.30;94.60;;;;;;4199369;28;20054;-72
2021/11/12 15:39:19;;;;;;;28.25;16.45;;;26.20;94.70;;;;;;4205817;28;20415;-72